メインページ
METAR-TAF:

METAR-TAF

空港 :

ムワンザ, タンザニア

緯度: 02-28S, 経度: 032-55E, 海抜: 1139m

現時点の気象観測

当レポートは3時間33分前の21:00(UTC)に作成
の風 5kt
気温 20°C
湿度 94%
気圧 1012 hPa
視程10km以上
高度1900ftの雲はほとんどない
高度2000ftの雲はほとんどない, 積乱雲.
高度9000ftの千切れ雲あり

METAR: HTMW 222100Z 18005KT 9999 FEW019 FEW020CB BKN090 20/19 Q1012 NOSIG

時間: 03:33 (00:33 UTC)

予報

当レポートは7時間33分前の17:00(UTC)に作成
予報は22日の 18時(UTC)から 23日の 18時(UTC)まで有効
の風 kt
視程10km以上
高度2200ftの雲は散在している
高度2300ftの雲はほとんどない, 積乱雲.
高度9000ftの千切れ雲あり
22日の 23時(UTC)から 23日の 04時(UTC)まで一時的に
の風 10kt
23日の 10時(UTC)から 23日の 12時(UTC)まで徐々に
西の風 10kt

TAF: HTMW 221700Z 2218/2318 00000KT 9999 SCT022 FEW023CB BKN090 TEMPO 2223/2304 09010KT TS/TSRA BECMG 2310/2312 27010KT NSW

4,000以上の空港の気象観測と天気予報(METAR報とTAF報)

利用可能な観測所は地図上に黄色い丸と赤い丸で示す。

丸の上にカーソルを重ねると観測所名を参照できる。

次にクリックすると気象観測と天気予報を参照できる。

マップの切り替え:黒色「×」印の緑ボタンをクリックして拡大、「-」印の緑ボタンをクリックして縮小、緑色の三角印をクリックして隣りの地図に切り替え


METAR-TAF: